Time;durP1;ratioP1;P1;durP2;ratioP2;P2;SDS_P1;SDS_P2;PMS_P1;PMS_P2;Temp;Humidity;BMP_temperature;BMP_pressure;BME280_temperature;BME280_humidity;BME280_pressure;Samples;Min_cycle;Max_cycle;Signal;HPM_P1;HPM_P2
2024/02/03 00:01:44;;;;;;;;;;;;;;;6.50;81.43;100238.11;137148;1275;23115;-75
2024/02/03 00:04:44;;;;;;;;;;;;;;;6.50;81.41;100238.63;137168;1276;22387;-76
2024/02/03 00:07:45;;;;;;;;;;;;;;;6.50;81.35;100234.96;137184;1276;22390;-75
2024/02/03 00:10:46;;;;;;;;;;;;;;;6.50;81.63;100235.67;137155;1276;22397;-77
2024/02/03 00:13:46;;;;;;;;;;;;;;;6.48;82.01;100229.48;137164;1277;22374;-76
2024/02/03 00:16:47;;;;;;;;;;;;;;;6.49;82.08;100218.47;137175;1276;22397;-76
2024/02/03 00:19:48;;;;;;;;;;;;;;;6.52;82.14;100226.82;137090;1276;22371;-76
2024/02/03 00:22:51;;;;;;;;;;;;;;;6.53;82.30;100230.06;137111;1276;22403;-77
2024/02/03 00:25:51;;;;;;;;;;;;;;;6.54;82.38;100234.43;137176;1273;22529;-75
2024/02/03 00:28:54;;;;;;;;;;;;;;;6.54;82.43;100230.34;137195;1276;22445;-75
2024/02/03 00:31:54;;;;;;;;;;;;;;;6.54;82.47;100231.44;136975;1276;22416;-75
2024/02/03 00:34:55;;;;;;;;;;;;;;;6.53;82.64;100231.82;137153;1276;22425;-76
2024/02/03 00:37:56;;;;;;;;;;;;;;;6.54;82.52;100228.25;137165;1276;22397;-76
2024/02/03 00:40:56;;;;;;;;;;;;;;;6.55;82.60;100225.52;137168;1276;22381;-75
2024/02/03 00:43:57;;;;;;;;;;;;;;;6.57;82.61;100227.17;137213;1276;22402;-76
2024/02/03 00:46:57;;;;;;;;;;;;;;;6.56;82.88;100226.64;137166;1276;22444;-76
2024/02/03 00:49:58;;;;;;;;;;;;;;;6.57;82.89;100229.55;137145;1276;22379;-76
2024/02/03 00:52:58;;;;;;;;;;;;;;;6.57;82.83;100231.53;136944;1276;22392;-75
2024/02/03 00:56:00;;;;;;;;;;;;;;;6.56;82.87;100229.46;137166;1275;22383;-76
2024/02/03 00:59:01;;;;;;;;;;;;;;;6.56;82.87;100222.30;137160;1276;22436;-76
2024/02/03 01:02:02;;;;;;;;;;;;;;;6.56;83.18;100226.86;137164;1276;22455;-76
2024/02/03 01:05:02;;;;;;;;;;;;;;;6.55;83.07;100231.65;137173;1276;22416;-75
2024/02/03 01:08:04;;;;;;;;;;;;;;;6.53;83.20;100233.93;137192;1276;22402;-75
2024/02/03 01:11:04;;;;;;;;;;;;;;;6.52;83.32;100231.60;137240;1276;22395;-76
2024/02/03 01:14:05;;;;;;;;;;;;;;;6.52;83.25;100238.42;137157;1276;22393;-76
2024/02/03 01:17:05;;;;;;;;;;;;;;;6.52;83.46;100239.36;137191;1276;22416;-75
2024/02/03 01:20:06;;;;;;;;;;;;;;;6.53;83.51;100244.52;137134;1276;22386;-76
2024/02/03 01:23:07;;;;;;;;;;;;;;;6.53;83.53;100246.83;137143;1276;22385;-75
2024/02/03 01:26:09;;;;;;;;;;;;;;;6.52;83.84;100252.48;137139;1275;22389;-76
2024/02/03 01:29:10;;;;;;;;;;;;;;;6.52;83.63;100247.77;136962;1276;22429;-78
2024/02/03 01:32:10;;;;;;;;;;;;;;;6.51;84.03;100248.59;137128;1276;22390;-76
2024/02/03 01:35:11;;;;;;;;;;;;;;;6.51;84.29;100254.02;137156;1265;22381;-75
2024/02/03 01:38:12;;;;;;;;;;;;;;;6.49;84.55;100249.93;137117;1276;22857;-76
2024/02/03 01:41:12;;;;;;;;;;;;;;;6.49;84.87;100246.83;137160;1276;22352;-75
2024/02/03 01:44:13;;;;;;;;;;;;;;;6.49;85.07;100247.33;137147;1276;22418;-75
2024/02/03 01:47:14;;;;;;;;;;;;;;;6.50;84.92;100253.05;137171;1276;22401;-75
2024/02/03 01:50:14;;;;;;;;;;;;;;;6.48;85.06;100256.58;136960;1276;22421;-76
2024/02/03 01:53:17;;;;;;;;;;;;;;;6.46;85.50;100254.27;137147;1276;22407;-75
2024/02/03 01:56:21;;;;;;;;;;;;;;;6.45;85.47;100260.02;136947;1276;23028;-75
2024/02/03 01:59:27;;;;;;;;;;;;;;;6.43;85.64;100255.27;137184;1276;23023;-76
2024/02/03 02:02:28;;;;;;;;;;;;;;;6.42;85.86;100249.89;137154;1276;22401;-76
2024/02/03 02:05:31;;;;;;;;;;;;;;;6.43;86.03;100248.27;137140;1276;23392;-76
2024/02/03 02:08:32;;;;;;;;;;;;;;;6.42;86.20;100247.58;137200;1276;23043;-75
2024/02/03 02:11:33;;;;;;;;;;;;;;;6.43;86.41;100239.11;137197;1276;23129;-75
2024/02/03 02:14:33;;;;;;;;;;;;;;;6.45;86.44;100236.96;137179;1276;23132;-77
2024/02/03 02:17:36;;;;;;;;;;;;;;;6.46;86.60;100236.16;137179;1276;23011;-75
2024/02/03 02:20:36;;;;;;;;;;;;;;;6.48;86.57;100236.56;137128;1276;23130;-75
2024/02/03 02:23:37;;;;;;;;;;;;;;;6.49;86.87;100235.52;137170;1276;23026;-78
2024/02/03 02:26:37;;;;;;;;;;;;;;;6.50;86.80;100236.67;137148;1276;23220;-75
2024/02/03 02:29:38;;;;;;;;;;;;;;;6.51;86.75;100229.38;137176;1276;23477;-76
2024/02/03 02:32:38;;;;;;;;;;;;;;;6.51;87.03;100232.71;137142;1276;22798;-76
2024/02/03 02:35:39;;;;;;;;;;;;;;;6.52;87.27;100230.88;137209;1273;23079;-75
2024/02/03 02:38:40;;;;;;;;;;;;;;;6.54;87.24;100227.74;137194;1265;22380;-76
2024/02/03 02:41:40;;;;;;;;;;;;;;;6.54;87.46;100221.80;137150;1276;22370;-75
2024/02/03 02:44:41;;;;;;;;;;;;;;;6.54;87.63;100220.55;137111;1276;23073;-75
2024/02/03 02:47:41;;;;;;;;;;;;;;;6.53;87.78;100224.01;137133;1276;23082;-75
2024/02/03 02:50:44;;;;;;;;;;;;;;;6.50;88.03;100223.65;136962;1276;23429;-75
2024/02/03 02:53:45;;;;;;;;;;;;;;;6.49;88.42;100218.83;137181;1266;22382;-75
2024/02/03 02:56:45;;;;;;;;;;;;;;;6.48;88.48;100221.75;137122;1276;23291;-75
2024/02/03 02:59:46;;;;;;;;;;;;;;;6.48;88.67;100223.00;137160;1276;23140;-76
2024/02/03 03:02:47;;;;;;;;;;;;;;;6.48;89.13;100219.29;137117;1276;23073;-76
2024/02/03 03:05:47;;;;;;;;;;;;;;;6.48;89.02;100222.99;137137;1276;23039;-75
2024/02/03 03:08:48;;;;;;;;;;;;;;;6.48;89.14;100223.85;137134;1276;22385;-75
2024/02/03 03:11:48;;;;;;;;;;;;;;;6.49;89.36;100226.77;137127;1276;23122;-75
2024/02/03 03:14:49;;;;;;;;;;;;;;;6.50;89.30;100226.30;137109;1276;22375;-75
2024/02/03 03:17:49;;;;;;;;;;;;;;;6.52;89.22;100235.46;137169;1276;22460;-75
2024/02/03 03:20:53;;;;;;;;;;;;;;;6.52;89.49;100234.76;137113;1276;23257;-75
2024/02/03 03:23:54;;;;;;;;;;;;;;;6.51;89.65;100237.79;137164;1276;23170;-74
2024/02/03 03:26:54;;;;;;;;;;;;;;;6.51;90.03;100241.73;137145;1276;23139;-75
2024/02/03 03:29:55;;;;;;;;;;;;;;;6.49;90.60;100243.48;137088;1276;23325;-75
2024/02/03 03:32:56;;;;;;;;;;;;;;;6.47;91.14;100247.10;136943;1276;23170;-75
2024/02/03 03:35:57;;;;;;;;;;;;;;;6.46;91.23;100252.52;137176;1276;22382;-75
2024/02/03 03:38:57;;;;;;;;;;;;;;;6.44;91.65;100252.37;137177;1276;22386;-75
2024/02/03 03:41:58;;;;;;;;;;;;;;;6.41;91.85;100261.60;137011;1276;22425;-75
2024/02/03 03:44:58;;;;;;;;;;;;;;;6.37;92.50;100256.80;137104;1276;23154;-74
2024/02/03 03:47:59;;;;;;;;;;;;;;;6.34;92.80;100260.11;137142;1276;23486;-74
2024/02/03 03:50:59;;;;;;;;;;;;;;;6.33;92.53;100264.11;137132;1276;22991;-74
2024/02/03 03:54:00;;;;;;;;;;;;;;;6.30;92.97;100262.95;137213;1276;22424;-75
2024/02/03 03:57:01;;;;;;;;;;;;;;;6.27;93.25;100265.79;137143;1273;22403;-74
2024/02/03 04:00:04;;;;;;;;;;;;;;;6.26;93.59;100269.60;137161;1276;23024;-74
2024/02/03 04:03:12;;;;;;;;;;;;;;;6.24;94.37;100266.75;137142;1276;22255;-75
2024/02/03 04:06:13;;;;;;;;;;;;;;;6.22;94.36;100264.10;137123;1270;22390;-74
2024/02/03 04:09:14;;;;;;;;;;;;;;;6.20;95.22;100261.79;137148;1270;22380;-75
2024/02/03 04:12:17;;;;;;;;;;;;;;;6.19;95.11;100258.59;137111;1276;23509;-75
2024/02/03 04:15:18;;;;;;;;;;;;;;;6.17;95.58;100263.83;137163;1265;22368;-74
2024/02/03 04:18:18;;;;;;;;;;;;;;;6.16;95.88;100258.70;137146;1276;22522;-74
2024/02/03 04:21:19;;;;;;;;;;;;;;;6.15;95.96;100253.84;137168;1276;22365;-74
2024/02/03 04:24:19;;;;;;;;;;;;;;;6.15;96.26;100253.73;137148;1276;22420;-75
2024/02/03 04:27:20;;;;;;;;;;;;;;;6.15;96.85;100253.34;137128;1276;22448;-74
2024/02/03 04:30:21;;;;;;;;;;;;;;;6.15;96.80;100256.31;137121;1276;22361;-75
2024/02/03 04:33:21;;;;;;;;;;;;;;;6.15;96.67;100248.41;137160;1276;22384;-74
2024/02/03 04:36:22;;;;;;;;;;;;;;;6.17;97.40;100244.20;137135;1270;22393;-74
2024/02/03 04:39:22;;;;;;;;;;;;;;;6.19;97.53;100242.28;137139;1273;22458;-75
2024/02/03 04:42:23;;;;;;;;;;;;;;;6.21;97.62;100239.93;137136;1276;22475;-74
2024/02/03 04:45:24;;;;;;;;;;;;;;;6.24;97.63;100230.91;137139;1272;22402;-74
2024/02/03 04:48:24;;;;;;;;;;;;;;;6.28;97.58;100230.38;137154;1276;22412;-74
2024/02/03 04:51:25;;;;;;;;;;;;;;;6.30;97.77;100226.66;137107;1276;22457;-75
2024/02/03 04:54:25;;;;;;;;;;;;;;;6.33;97.53;100216.13;137195;1276;22366;-74
2024/02/03 04:57:26;;;;;;;;;;;;;;;6.36;97.75;100218.99;137096;1276;22396;-74
2024/02/03 05:00:26;;;;;;;;;;;;;;;6.39;97.73;100214.49;137135;1276;22394;-74
2024/02/03 05:03:27;;;;;;;;;;;;;;;6.43;97.80;100221.14;137115;1276;22458;-75
2024/02/03 05:06:27;;;;;;;;;;;;;;;6.47;97.50;100228.21;137126;1276;22434;-74
2024/02/03 05:09:28;;;;;;;;;;;;;;;6.51;97.65;100225.52;137054;1276;22455;-74
2024/02/03 05:12:31;;;;;;;;;;;;;;;6.56;97.85;100227.05;137126;1276;22386;-74
2024/02/03 05:15:31;;;;;;;;;;;;;;;6.59;97.47;100228.39;137130;1276;22410;-74
2024/02/03 05:18:32;;;;;;;;;;;;;;;6.61;97.09;100230.94;137124;1273;22430;-75
2024/02/03 05:21:32;;;;;;;;;;;;;;;6.63;97.10;100229.19;137138;1276;23224;-74
2024/02/03 05:24:33;;;;;;;;;;;;;;;6.66;97.09;100238.02;137128;1276;23153;-75
2024/02/03 05:27:33;;;;;;;;;;;;;;;6.69;96.97;100235.99;137149;1276;22396;-74
2024/02/03 05:30:34;;;;;;;;;;;;;;;6.72;96.77;100238.03;137063;1276;22463;-78
2024/02/03 05:33:34;;;;;;;;;;;;;;;6.75;96.75;100240.77;137113;1276;22381;-74
2024/02/03 05:36:35;;;;;;;;;;;;;;;6.78;96.69;100240.16;137131;1276;22413;-76
2024/02/03 05:39:36;;;;;;;;;;;;;;;6.81;96.62;100238.52;137107;1272;22557;-74
2024/02/03 05:42:36;;;;;;;;;;;;;;;6.84;96.38;100236.30;137106;1276;22410;-77
2024/02/03 05:45:37;;;;;;;;;;;;;;;6.86;96.25;100229.94;137100;1276;22367;-74
2024/02/03 05:48:37;;;;;;;;;;;;;;;6.88;96.11;100227.83;136972;1275;22382;-74
2024/02/03 05:51:38;;;;;;;;;;;;;;;6.90;95.96;100229.58;137082;1276;22384;-75
2024/02/03 05:54:38;;;;;;;;;;;;;;;6.92;96.04;100220.80;137120;1276;22385;-74
2024/02/03 05:57:52;;;;;;;;;;;;;;;6.94;95.88;100228.27;137134;1276;24437;-75
2024/02/03 06:00:54;;;;;;;;;;;;;;;6.98;95.85;100229.91;137121;1276;22386;-75
2024/02/03 06:03:54;;;;;;;;;;;;;;;6.98;95.71;100230.39;137080;1272;22473;-74
2024/02/03 06:06:55;;;;;;;;;;;;;;;7.01;95.64;100228.56;137100;1276;22391;-75
2024/02/03 06:09:56;;;;;;;;;;;;;;;7.04;95.59;100225.99;137106;1270;23090;-74
2024/02/03 06:12:56;;;;;;;;;;;;;;;7.06;95.52;100226.67;137107;1276;22377;-75
2024/02/03 06:15:57;;;;;;;;;;;;;;;7.07;95.38;100227.97;137079;1276;22491;-74
2024/02/03 06:18:58;;;;;;;;;;;;;;;7.09;95.12;100226.79;137087;1276;22473;-74
2024/02/03 06:21:58;;;;;;;;;;;;;;;7.11;95.12;100226.91;137104;1276;22461;-77
2024/02/03 06:24:58;;;;;;;;;;;;;;;7.13;94.95;100221.81;137105;1276;22397;-75
2024/02/03 06:27:59;;;;;;;;;;;;;;;7.15;94.91;100225.12;137074;1276;22389;-75
2024/02/03 06:31:00;;;;;;;;;;;;;;;7.17;94.82;100226.38;137065;1269;22527;-75
2024/02/03 06:34:00;;;;;;;;;;;;;;;7.19;94.84;100228.08;137126;1276;22394;-74
2024/02/03 06:37:03;;;;;;;;;;;;;;;7.23;94.74;100228.16;137015;1276;22381;-75
2024/02/03 06:40:04;;;;;;;;;;;;;;;7.24;94.88;100231.71;136980;1276;22361;-74
2024/02/03 06:43:07;;;;;;;;;;;;;;;7.25;94.96;100231.23;137004;1276;22406;-76
2024/02/03 06:46:08;;;;;;;;;;;;;;;7.26;94.93;100226.81;137103;1276;22398;-74
2024/02/03 06:49:08;;;;;;;;;;;;;;;7.26;94.83;100217.67;136970;1276;22545;-74
2024/02/03 06:52:09;;;;;;;;;;;;;;;7.29;94.84;100222.31;137079;1276;23150;-74
2024/02/03 06:55:10;;;;;;;;;;;;;;;7.30;94.97;100218.80;137103;1276;22536;-73
2024/02/03 06:58:10;;;;;;;;;;;;;;;7.31;95.05;100223.36;137086;1276;22553;-75
2024/02/03 07:01:10;;;;;;;;;;;;;;;7.32;95.44;100225.64;136978;1274;22399;-78
2024/02/03 07:04:11;;;;;;;;;;;;;;;7.34;95.57;100227.46;137067;1276;22378;-81
2024/02/03 07:07:12;;;;;;;;;;;;;;;7.35;95.62;100230.98;137096;1276;22390;-79
2024/02/03 07:10:12;;;;;;;;;;;;;;;7.37;95.68;100241.38;137149;1273;22396;-78
2024/02/03 07:13:13;;;;;;;;;;;;;;;7.38;95.72;100237.63;137095;1276;22382;-80
2024/02/03 07:16:14;;;;;;;;;;;;;;;7.38;95.91;100240.60;137130;1276;22422;-77
2024/02/03 07:19:14;;;;;;;;;;;;;;;7.38;95.87;100237.08;137118;1276;22463;-79
2024/02/03 07:22:15;;;;;;;;;;;;;;;7.38;96.11;100242.74;137073;1276;22457;-75
2024/02/03 07:25:16;;;;;;;;;;;;;;;7.38;96.20;100246.95;137139;1276;23162;-74
2024/02/03 07:28:17;;;;;;;;;;;;;;;7.35;96.34;100242.83;137010;1276;22437;-74
2024/02/03 07:31:30;;;;;;;;;;;;;;;7.34;96.41;100243.83;136999;1276;22399;-76
2024/02/03 07:34:31;;;;;;;;;;;;;;;7.31;96.83;100242.63;136992;1274;22393;-76
2024/02/03 07:37:31;;;;;;;;;;;;;;;7.30;97.06;100241.34;137073;1276;22394;-77
2024/02/03 07:40:32;;;;;;;;;;;;;;;7.29;97.48;100241.95;137104;1276;22396;-82
2024/02/03 07:43:35;;;;;;;;;;;;;;;7.28;97.43;100239.11;137099;1270;22449;-77
2024/02/03 07:46:39;;;;;;;;;;;;;;;7.28;97.44;100240.70;137075;1276;22366;-75
2024/02/03 07:49:40;;;;;;;;;;;;;;;7.28;97.81;100237.67;137090;1276;22386;-76
2024/02/03 07:52:40;;;;;;;;;;;;;;;7.30;97.80;100240.54;137088;1276;22396;-75
2024/02/03 07:55:41;;;;;;;;;;;;;;;7.30;97.80;100238.55;137116;1276;22456;-80
2024/02/03 07:58:41;;;;;;;;;;;;;;;7.32;97.80;100241.38;137088;1276;22418;-77
2024/02/03 08:01:42;;;;;;;;;;;;;;;7.35;97.84;100241.96;137123;1276;22393;-79
2024/02/03 08:04:43;;;;;;;;;;;;;;;7.37;98.03;100243.31;137105;1271;22433;-78
2024/02/03 08:07:48;;;;;;;;;;;;;;;7.39;97.80;100235.42;137141;1276;23511;-79
2024/02/03 08:10:50;;;;;;;;;;;;;;;7.39;98.03;100225.54;137088;1276;22367;-77
2024/02/03 08:13:51;;;;;;;;;;;;;;;7.42;97.96;100231.27;137116;1276;22406;-77
2024/02/03 08:16:52;;;;;;;;;;;;;;;7.44;97.96;100231.27;137092;1276;23268;-78
2024/02/03 08:19:53;;;;;;;;;;;;;;;7.47;97.93;100232.42;137066;1276;22401;-78
2024/02/03 08:22:53;;;;;;;;;;;;;;;7.49;97.86;100239.89;137051;1276;23243;-81
2024/02/03 08:25:55;;;;;;;;;;;;;;;7.54;97.63;100246.88;137109;1276;22455;-76
2024/02/03 08:28:55;;;;;;;;;;;;;;;7.57;97.66;100242.91;137081;1276;23153;-76
2024/02/03 08:31:56;;;;;;;;;;;;;;;7.61;97.38;100243.01;137153;1276;22431;-74
2024/02/03 08:34:57;;;;;;;;;;;;;;;7.66;97.18;100245.42;137145;1273;22398;-75
2024/02/03 08:37:57;;;;;;;;;;;;;;;7.71;96.88;100252.17;137142;1276;23197;-75
2024/02/03 08:40:58;;;;;;;;;;;;;;;7.75;96.60;100262.66;137114;1276;22403;-74
2024/02/03 08:43:59;;;;;;;;;;;;;;;7.81;96.43;100271.30;137098;1276;22450;-88
2024/02/03 08:46:59;;;;;;;;;;;;;;;7.83;96.24;100271.74;137177;1276;22412;-77
2024/02/03 08:50:00;;;;;;;;;;;;;;;7.85;96.12;100277.75;137148;1276;22401;-75
2024/02/03 08:53:01;;;;;;;;;;;;;;;7.86;96.33;100275.21;137107;1275;22402;-77
2024/02/03 08:56:05;;;;;;;;;;;;;;;7.85;96.44;100279.46;137130;1276;22395;-85
2024/02/03 08:59:05;;;;;;;;;;;;;;;7.85;96.54;100290.98;137142;1276;22427;-75
2024/02/03 09:02:06;;;;;;;;;;;;;;;7.85;96.57;100288.70;137153;1276;23075;-75
2024/02/03 09:05:07;;;;;;;;;;;;;;;7.82;96.78;100288.96;137101;1271;22399;-76
2024/02/03 09:08:08;;;;;;;;;;;;;;;7.81;97.04;100290.31;136916;1276;23124;-80
2024/02/03 09:11:21;;;;;;;;;;;;;;;7.79;97.69;100290.81;137159;1276;22413;-73
2024/02/03 09:14:25;;;;;;;;;;;;;;;7.77;98.09;100296.27;137119;1276;22974;-75
2024/02/03 09:17:25;;;;;;;;;;;;;;;7.74;98.32;100297.28;137151;1276;22390;-81
2024/02/03 09:20:26;;;;;;;;;;;;;;;7.72;99.13;100297.34;137165;1276;22380;-76
2024/02/03 09:23:27;;;;;;;;;;;;;;;7.71;99.56;100297.27;136989;1274;23057;-74
2024/02/03 09:26:27;;;;;;;;;;;;;;;7.69;100.00;100296.05;137158;1276;22408;-74
2024/02/03 09:29:28;;;;;;;;;;;;;;;7.66;100.00;100304.05;137127;1276;22367;-75
2024/02/03 09:32:29;;;;;;;;;;;;;;;7.65;100.00;100304.12;136893;1276;302845;-75
2024/02/03 09:35:50;;;;;;;;;;;;;;;7.67;100.00;100303.78;137123;1276;23552;-76
2024/02/03 09:38:51;;;;;;;;;;;;;;;7.68;100.00;100305.61;136991;1276;22420;-76
2024/02/03 09:41:54;;;;;;;;;;;;;;;7.69;100.00;100311.85;137147;1276;22445;-72
2024/02/03 09:44:55;;;;;;;;;;;;;;;7.66;100.00;100315.08;137095;1276;22384;-76
2024/02/03 09:47:56;;;;;;;;;;;;;;;7.64;100.00;100322.52;137122;1276;22428;-73
2024/02/03 09:50:58;;;;;;;;;;;;;;;7.61;100.00;100324.83;136922;1276;22384;-73
2024/02/03 09:53:59;;;;;;;;;;;;;;;7.60;100.00;100320.59;137121;1276;22383;-75
2024/02/03 09:57:00;;;;;;;;;;;;;;;7.58;100.00;100318.52;137111;1276;22996;-76
2024/02/03 10:00:00;;;;;;;;;;;;;;;7.55;100.00;100314.51;137098;1276;22443;-73
2024/02/03 10:03:02;;;;;;;;;;;;;;;7.54;100.00;100307.95;137069;1276;23094;-74
2024/02/03 10:06:06;;;;;;;;;;;;;;;7.52;100.00;100304.60;137128;1276;23110;-75
2024/02/03 10:09:07;;;;;;;;;;;;;;;7.51;100.00;100306.10;137111;1276;22959;-79
2024/02/03 10:12:15;;;;;;;;;;;;;;;7.51;100.00;100306.32;137118;1276;23151;-73
2024/02/03 10:15:16;;;;;;;;;;;;;;;7.51;100.00;100310.32;137082;1276;22978;-73
2024/02/03 10:18:17;;;;;;;;;;;;;;;7.52;100.00;100304.98;137148;1276;22372;-74
2024/02/03 10:21:20;;;;;;;;;;;;;;;7.55;100.00;100294.66;137073;1276;22398;-73
2024/02/03 10:24:22;;;;;;;;;;;;;;;7.58;100.00;100301.06;137062;1276;22406;-75
2024/02/03 10:27:26;;;;;;;;;;;;;;;7.61;100.00;100297.41;136817;1276;22394;-81
2024/02/03 10:30:33;;;;;;;;;;;;;;;7.68;100.00;100291.21;137067;1276;23127;-80
2024/02/03 10:33:34;;;;;;;;;;;;;;;7.74;100.00;100283.58;136993;1277;23124;-74
2024/02/03 10:36:36;;;;;;;;;;;;;;;7.79;100.00;100285.23;136917;1276;22510;-74
2024/02/03 10:39:38;;;;;;;;;;;;;;;7.85;100.00;100289.20;137101;1277;22388;-74
2024/02/03 10:42:39;;;;;;;;;;;;;;;7.93;100.00;100285.74;137116;1277;22395;-80
2024/02/03 10:45:42;;;;;;;;;;;;;;;8.04;100.00;100289.81;137088;1277;22381;-74
2024/02/03 10:48:46;;;;;;;;;;;;;;;8.15;100.00;100291.11;137088;1276;23135;-76
2024/02/03 10:51:50;;;;;;;;;;;;;;;8.26;100.00;100282.14;136908;1277;23423;-78
2024/02/03 10:54:53;;;;;;;;;;;;;;;8.33;100.00;100277.89;137100;1275;22393;-75
2024/02/03 10:57:54;;;;;;;;;;;;;;;8.41;100.00;100281.40;137115;1276;23080;-74
2024/02/03 11:00:57;;;;;;;;;;;;;;;8.44;100.00;100278.80;137096;1277;23548;-74
2024/02/03 11:04:00;;;;;;;;;;;;;;;8.43;100.00;100272.55;137065;1276;23228;-74
2024/02/03 11:07:00;;;;;;;;;;;;;;;8.44;100.00;100265.95;136998;1274;23570;-73
2024/02/03 11:10:03;;;;;;;;;;;;;;;8.50;100.00;100270.96;137106;1276;23173;-72
2024/02/03 11:13:22;;;;;;;;;;;;;;;8.62;100.00;100267.25;137146;1276;23212;-73
2024/02/03 11:16:23;;;;;;;;;;;;;;;8.70;100.00;100266.79;136983;1277;22396;-74
2024/02/03 11:19:28;;;;;;;;;;;;;;;8.75;100.00;100268.60;137107;1277;22449;-74
2024/02/03 11:22:29;;;;;;;;;;;;;;;8.81;100.00;100271.52;137180;1277;22386;-73
2024/02/03 11:25:30;;;;;;;;;;;;;;;8.82;100.00;100270.30;137149;1277;23564;-72
2024/02/03 11:28:34;;;;;;;;;;;;;;;8.82;100.00;100267.31;136940;1275;23202;-72
2024/02/03 11:31:34;;;;;;;;;;;;;;;8.83;100.00;100261.06;137099;1277;22408;-73
2024/02/03 11:34:37;;;;;;;;;;;;;;;8.82;100.00;100255.23;137110;1276;22407;-74
2024/02/03 11:37:38;;;;;;;;;;;;;;;8.75;100.00;100255.01;136917;1276;22385;-72
2024/02/03 11:40:42;;;;;;;;;;;;;;;8.67;100.00;100252.77;137174;1276;22443;-72
2024/02/03 11:43:43;;;;;;;;;;;;;;;8.62;100.00;100256.83;136929;1277;22377;-74
2024/02/03 11:46:44;;;;;;;;;;;;;;;8.57;100.00;100253.48;137145;1276;22372;-77
2024/02/03 11:49:45;;;;;;;;;;;;;;;8.50;100.00;100254.19;137140;1262;22414;-76
2024/02/03 11:52:46;;;;;;;;;;;;;;;8.45;100.00;100255.42;137132;1277;22372;-77
2024/02/03 11:55:46;;;;;;;;;;;;;;;8.44;100.00;100253.68;137132;1276;22572;-79
2024/02/03 11:58:47;;;;;;;;;;;;;;;8.44;100.00;100250.44;137097;1276;22418;-78
2024/02/03 12:01:47;;;;;;;;;;;;;;;8.47;100.00;100253.69;137075;1277;22371;-77
2024/02/03 12:04:48;;;;;;;;;;;;;;;8.49;100.00;100251.89;137133;1276;22383;-77
2024/02/03 12:07:49;;;;;;;;;;;;;;;8.49;100.00;100241.60;137084;1274;22383;-77
2024/02/03 12:10:49;;;;;;;;;;;;;;;8.51;100.00;100243.58;137146;1276;23092;-76
2024/02/03 12:13:54;;;;;;;;;;;;;;;8.51;100.00;100238.95;137101;1276;22386;-74
2024/02/03 12:16:59;;;;;;;;;;;;;;;8.55;100.00;100240.88;137130;1273;22408;-72
2024/02/03 12:19:59;;;;;;;;;;;;;;;8.63;100.00;100238.23;137093;1276;22429;-73
2024/02/03 12:23:00;;;;;;;;;;;;;;;8.70;100.00;100227.05;137132;1276;22396;-76
2024/02/03 12:26:01;;;;;;;;;;;;;;;8.76;100.00;100226.66;136938;1276;22422;-75
2024/02/03 12:29:02;;;;;;;;;;;;;;;8.83;100.00;100227.59;137128;1276;22377;-74
2024/02/03 12:32:03;;;;;;;;;;;;;;;8.87;100.00;100225.55;137102;1276;22372;-76
2024/02/03 12:35:03;;;;;;;;;;;;;;;8.89;100.00;100228.67;137129;1276;22382;-73
2024/02/03 12:38:04;;;;;;;;;;;;;;;8.87;100.00;100233.65;137144;1273;22388;-74
2024/02/03 12:41:05;;;;;;;;;;;;;;;8.82;100.00;100240.71;137102;1276;22376;-77
2024/02/03 12:44:05;;;;;;;;;;;;;;;8.78;100.00;100244.09;137112;1276;22392;-78
2024/02/03 12:47:06;;;;;;;;;;;;;;;8.76;100.00;100243.59;137124;1276;22375;-78
2024/02/03 12:50:08;;;;;;;;;;;;;;;8.77;100.00;100245.48;137124;1276;22406;-77
2024/02/03 12:53:11;;;;;;;;;;;;;;;8.78;100.00;100244.81;136939;1276;22381;-77
2024/02/03 12:56:12;;;;;;;;;;;;;;;8.79;100.00;100246.29;137109;1276;22389;-78
2024/02/03 12:59:13;;;;;;;;;;;;;;;8.81;100.00;100247.21;137095;1276;22376;-78
2024/02/03 13:02:16;;;;;;;;;;;;;;;8.81;100.00;100250.99;137094;1276;22396;-78
2024/02/03 13:05:16;;;;;;;;;;;;;;;8.82;100.00;100255.36;137094;1276;22419;-78
2024/02/03 13:08:17;;;;;;;;;;;;;;;8.83;100.00;100261.23;137107;1274;22355;-79
2024/02/03 13:11:20;;;;;;;;;;;;;;;8.81;100.00;100265.48;136951;1276;23023;-78
2024/02/03 13:14:21;;;;;;;;;;;;;;;8.80;100.00;100268.73;137103;1276;22384;-78
2024/02/03 13:17:22;;;;;;;;;;;;;;;8.80;100.00;100264.24;137110;1276;22412;-78
2024/02/03 13:20:23;;;;;;;;;;;;;;;8.78;100.00;100260.85;137137;1276;22359;-78
2024/02/03 13:23:23;;;;;;;;;;;;;;;8.76;100.00;100255.65;137146;1276;22395;-78
2024/02/03 13:26:24;;;;;;;;;;;;;;;8.71;100.00;100253.81;137131;1276;22366;-79
2024/02/03 13:29:25;;;;;;;;;;;;;;;8.67;100.00;100257.41;137111;1274;22476;-79
2024/02/03 13:32:25;;;;;;;;;;;;;;;8.63;100.00;100256.85;137103;1276;22384;-79
2024/02/03 13:35:27;;;;;;;;;;;;;;;8.61;100.00;100258.13;137162;1276;22369;-79
2024/02/03 13:38:28;;;;;;;;;;;;;;;8.58;100.00;100260.01;137100;1276;22586;-77
2024/02/03 13:41:29;;;;;;;;;;;;;;;8.57;100.00;100253.13;137087;1276;22379;-77
2024/02/03 13:44:29;;;;;;;;;;;;;;;8.56;100.00;100260.27;137126;1276;22424;-78
2024/02/03 13:47:30;;;;;;;;;;;;;;;8.55;100.00;100259.47;137101;1276;22404;-79
2024/02/03 13:50:30;;;;;;;;;;;;;;;8.55;100.00;100252.56;137138;1276;22375;-78
2024/02/03 13:53:31;;;;;;;;;;;;;;;8.58;100.00;100251.61;137133;1276;22373;-78
2024/02/03 13:56:32;;;;;;;;;;;;;;;8.62;100.00;100245.89;136897;1276;22353;-77
2024/02/03 13:59:32;;;;;;;;;;;;;;;8.66;100.00;100245.87;137105;1276;22368;-77
2024/02/03 14:02:33;;;;;;;;;;;;;;;8.69;100.00;100244.67;137120;1276;22447;-78
2024/02/03 14:05:36;;;;;;;;;;;;;;;8.72;100.00;100239.78;137086;1276;22395;-78
2024/02/03 14:08:37;;;;;;;;;;;;;;;8.76;100.00;100239.21;137095;1276;22463;-77
2024/02/03 14:11:40;;;;;;;;;;;;;;;8.80;100.00;100242.29;137082;1275;22395;-77
2024/02/03 14:14:41;;;;;;;;;;;;;;;8.82;100.00;100237.71;137098;1276;22392;-79
2024/02/03 14:17:42;;;;;;;;;;;;;;;8.82;100.00;100235.39;137084;1276;22485;-78
2024/02/03 14:20:42;;;;;;;;;;;;;;;8.83;100.00;100226.52;137142;1276;22371;-77
2024/02/03 14:23:43;;;;;;;;;;;;;;;8.83;99.91;100223.36;136991;1276;22434;-77
2024/02/03 14:26:44;;;;;;;;;;;;;;;8.83;99.84;100226.10;137121;1271;22589;-77
2024/02/03 14:29:45;;;;;;;;;;;;;;;8.83;99.67;100222.46;137095;1276;22390;-78
2024/02/03 14:32:49;;;;;;;;;;;;;;;8.81;99.49;100220.34;137103;1277;22381;-78
2024/02/03 14:35:52;;;;;;;;;;;;;;;8.81;99.52;100223.34;137139;1276;22395;-78
2024/02/03 14:38:52;;;;;;;;;;;;;;;8.80;99.22;100216.53;137108;1276;22376;-78
2024/02/03 14:41:53;;;;;;;;;;;;;;;8.80;99.24;100216.76;137122;1276;22406;-77
2024/02/03 14:44:54;;;;;;;;;;;;;;;8.78;98.97;100225.80;137068;1276;22404;-78
2024/02/03 14:47:55;;;;;;;;;;;;;;;8.77;98.91;100224.31;137130;1276;22432;-81
2024/02/03 14:50:56;;;;;;;;;;;;;;;8.75;98.66;100224.59;137136;1276;22397;-78
2024/02/03 14:53:56;;;;;;;;;;;;;;;8.73;98.65;100229.77;137082;1276;23296;-79
2024/02/03 14:57:02;;;;;;;;;;;;;;;8.69;98.75;100227.31;137110;1276;22570;-75
2024/02/03 15:00:03;;;;;;;;;;;;;;;8.67;98.66;100227.00;137142;1277;22376;-82
2024/02/03 15:03:04;;;;;;;;;;;;;;;8.65;98.49;100230.92;137082;1276;22456;-82
2024/02/03 15:06:05;;;;;;;;;;;;;;;8.64;98.54;100228.59;137176;1276;22460;-85
2024/02/03 15:09:09;;;;;;;;;;;;;;;8.62;98.60;100224.01;137066;1276;22469;-84
2024/02/03 15:12:10;;;;;;;;;;;;;;;8.60;98.48;100224.16;137100;1276;23133;-86
2024/02/03 15:15:11;;;;;;;;;;;;;;;8.59;98.62;100221.70;137136;1276;22372;-85
2024/02/03 15:18:12;;;;;;;;;;;;;;;8.57;98.63;100226.83;137139;1273;22367;-84
2024/02/03 15:21:13;;;;;;;;;;;;;;;8.54;98.70;100228.14;137141;1277;22391;-86
2024/02/03 15:24:13;;;;;;;;;;;;;;;8.53;98.62;100227.17;137094;1277;23022;-84
2024/02/03 15:27:14;;;;;;;;;;;;;;;8.53;98.51;100222.71;137110;1277;22376;-84